Copake, New York
Current Conditions -  °F | °C
As of 12:54 AM on Wednesday 22 Oct 2014 (Local Time) from KPSF Reporting Station
Overcast Overcast  
Wind Chill: 50°   Ceiling: 1100
Heat Index: 50°   Visibility: 10mi
Dew Point: 48°   Wind: 3mph
Humidity: 93%   Direction: 70°ENE
Pressure: 29.97"   Gusts: NA
Location:  42.1°N, 73.55°W
Report Text: KPSF 220454Z AUTO 07003KT 10SM OVC011 10/09 A2997 RMK AO2 SLP141 T01000089 401060056
Loading
Personal Weather Stations






























Interactive Weather Map
Tropical Storm Tracking
New forecast layout! Learn more

10-Day Weather Forecast

Advertisements
Track Severe Weather on mobile